createdAt,value
2023-02-05T00:00:26.011Z,21.13
2023-02-05T00:02:54.223Z,16.77
2023-02-05T00:05:23.559Z,18.00
2023-02-05T00:07:51.849Z,17.33
2023-02-05T00:10:20.338Z,15.20
2023-02-05T00:12:49.996Z,17.77
2023-02-05T00:15:18.256Z,16.47
2023-02-05T00:17:46.475Z,16.83
2023-02-05T00:20:14.658Z,19.27
2023-02-05T00:22:42.910Z,20.13
2023-02-05T00:25:11.150Z,14.90
2023-02-05T00:27:39.492Z,11.93
2023-02-05T00:30:12.291Z,14.83
2023-02-05T00:32:40.516Z,14.60
2023-02-05T00:35:09.081Z,14.10
2023-02-05T00:37:37.683Z,16.13
2023-02-05T00:40:06.618Z,14.00
2023-02-05T00:42:34.975Z,13.70
2023-02-05T00:45:03.292Z,13.40
2023-02-05T00:47:33.263Z,14.30
2023-02-05T00:50:01.537Z,15.97
2023-02-05T00:52:29.774Z,12.60
2023-02-05T00:54:58.326Z,10.90
2023-02-05T00:57:26.702Z,11.40
2023-02-05T00:59:54.922Z,14.50
2023-02-05T01:02:25.235Z,10.87
2023-02-05T01:04:55.280Z,13.03
2023-02-05T01:07:23.561Z,13.00
2023-02-05T01:09:51.779Z,14.77
2023-02-05T01:12:20.008Z,15.00
2023-02-05T01:14:48.239Z,20.07
2023-02-05T01:17:16.500Z,18.17
2023-02-05T01:19:44.703Z,17.37
2023-02-05T01:22:16.078Z,17.70
2023-02-05T01:24:44.432Z,16.60
2023-02-05T01:27:12.663Z,14.03
2023-02-05T01:29:40.959Z,19.57
2023-02-05T01:32:09.232Z,13.77
2023-02-05T01:34:41.735Z,15.30
2023-02-05T01:37:09.992Z,14.90
2023-02-05T01:39:40.281Z,16.23
2023-02-05T01:42:18.442Z,12.50
2023-02-05T01:45:06.760Z,12.43
2023-02-05T01:47:35.050Z,13.50
2023-02-05T01:50:03.302Z,12.77
2023-02-05T01:52:31.526Z,9.87
2023-02-05T01:55:02.340Z,12.73
2023-02-05T01:57:30.997Z,9.77
2023-02-05T01:59:59.653Z,10.10
2023-02-05T02:02:29.817Z,7.80
2023-02-05T02:05:04.026Z,6.33
2023-02-05T02:07:32.290Z,5.83
2023-02-05T02:10:02.122Z,5.13
2023-02-05T02:12:34.763Z,4.43
2023-02-05T02:15:10.141Z,3.27
2023-02-05T02:17:42.179Z,4.07
2023-02-05T02:20:12.980Z,3.97
2023-02-05T02:22:59.045Z,3.60
2023-02-05T02:26:00.740Z,5.77
2023-02-05T02:28:35.550Z,4.50
2023-02-05T02:31:08.613Z,4.40
2023-02-05T02:33:43.807Z,4.13
2023-02-05T02:36:17.825Z,5.63
2023-02-05T02:38:52.420Z,7.37
2023-02-05T02:41:26.543Z,6.13
2023-02-05T02:43:58.428Z,5.57
2023-02-05T02:46:31.970Z,5.47
2023-02-05T02:49:06.300Z,6.07
2023-02-05T02:51:37.557Z,6.57
2023-02-05T02:54:09.444Z,8.63
2023-02-05T02:56:40.463Z,7.63
2023-02-05T02:59:13.607Z,8.10
2023-02-05T03:01:49.621Z,5.97
2023-02-05T03:04:27.482Z,8.60
2023-02-05T03:06:58.607Z,8.10
2023-02-05T03:09:35.737Z,6.83
2023-02-05T03:12:05.209Z,7.07
2023-02-05T03:14:35.123Z,6.17
2023-02-05T03:17:03.737Z,11.80
2023-02-05T03:19:33.621Z,6.37
2023-02-05T03:22:05.221Z,7.73
2023-02-05T03:24:33.712Z,7.30
2023-02-05T03:27:02.004Z,8.20
2023-02-05T03:29:33.010Z,6.10
2023-02-05T03:32:21.577Z,9.63
2023-02-05T03:35:03.244Z,8.47
2023-02-05T03:37:42.452Z,9.70
2023-02-05T03:40:19.968Z,10.73
2023-02-05T03:43:00.057Z,9.53
2023-02-05T03:45:42.799Z,9.40
2023-02-05T03:48:23.825Z,12.73
2023-02-05T03:50:56.859Z,6.70
2023-02-05T03:53:34.417Z,11.37
2023-02-05T03:56:08.364Z,12.63
2023-02-05T03:58:42.842Z,8.43
2023-02-05T04:01:12.998Z,7.63
2023-02-05T04:03:45.263Z,8.57
2023-02-05T04:06:14.161Z,12.20
2023-02-05T04:08:44.032Z,9.00
2023-02-05T04:11:12.520Z,12.77
2023-02-05T04:13:41.510Z,6.23
2023-02-05T04:16:12.494Z,11.53
2023-02-05T04:18:41.087Z,12.13
2023-02-05T04:21:10.748Z,11.23
2023-02-05T04:23:42.336Z,8.47
2023-02-05T04:26:11.004Z,15.63
2023-02-05T04:28:46.582Z,10.40
2023-02-05T04:31:15.378Z,11.90
2023-02-05T04:33:44.520Z,13.70
2023-02-05T04:36:16.700Z,15.57
2023-02-05T04:38:45.048Z,15.10
2023-02-05T04:41:13.329Z,15.33
2023-02-05T04:43:41.515Z,15.47
2023-02-05T04:46:11.061Z,18.17
2023-02-05T04:48:40.706Z,19.07
2023-02-05T04:51:10.488Z,15.90
2023-02-05T04:53:40.438Z,17.67
2023-02-05T04:56:11.847Z,20.43
2023-02-05T04:58:41.110Z,19.83
2023-02-05T05:01:13.413Z,22.53
2023-02-05T05:03:41.922Z,18.97
2023-02-05T05:06:10.399Z,22.77
2023-02-05T05:08:40.530Z,19.77
2023-02-05T05:11:12.418Z,3.00
2023-02-05T05:13:40.680Z,2.13
2023-02-05T05:16:10.763Z,1.30
2023-02-05T05:18:39.989Z,1.83
2023-02-05T05:21:09.277Z,1.77
2023-02-05T05:23:38.684Z,1.00
2023-02-05T05:26:10.204Z,1.33
2023-02-05T05:28:39.515Z,1.70
2023-02-05T05:31:09.437Z,1.53
2023-02-05T05:33:39.085Z,0.80
2023-02-05T05:36:08.687Z,1.73
2023-02-05T05:38:37.114Z,0.47
2023-02-05T05:41:23.407Z,0.20
2023-02-05T05:43:55.426Z,0.40
2023-02-05T05:46:25.681Z,0.60
2023-02-05T05:48:56.221Z,0.50
2023-02-05T05:51:25.655Z,0.30
2023-02-05T05:53:54.654Z,0.80
2023-02-05T05:56:23.740Z,0.20
2023-02-05T05:58:53.837Z,0.20
2023-02-05T06:01:23.029Z,0.70
2023-02-05T06:03:51.866Z,0.20
2023-02-05T06:06:20.183Z,0.10
2023-02-05T06:08:48.640Z,1.20
2023-02-05T06:11:16.857Z,0.60
2023-02-05T06:13:45.067Z,1.17
2023-02-05T06:16:14.727Z,1.53
2023-02-05T06:18:42.979Z,0.10
2023-02-05T06:21:11.208Z,0.50
2023-02-05T06:23:39.515Z,1.80
2023-02-05T06:26:07.736Z,0.57
2023-02-05T06:28:36.006Z,0.57
2023-02-05T06:31:04.423Z,0.30
2023-02-05T06:33:34.097Z,0.93
2023-02-05T06:36:02.550Z,0.77
2023-02-05T06:38:30.790Z,2.60
2023-02-05T06:40:59.010Z,2.67
2023-02-05T06:43:27.212Z,0.20
2023-02-05T06:45:55.702Z,0.57
2023-02-05T06:48:24.038Z,0.57
2023-02-05T06:50:53.645Z,0.30
2023-02-05T06:53:21.858Z,3.67
2023-02-05T06:55:50.072Z,0.33
2023-02-05T06:58:18.378Z,1.33
2023-02-05T07:00:46.673Z,0.93
2023-02-05T07:03:14.886Z,1.17
2023-02-05T07:05:43.129Z,0.73
2023-02-05T07:08:12.788Z,0.33
2023-02-05T07:10:41.055Z,0.63
2023-02-05T07:13:09.256Z,0.57
2023-02-05T07:15:38.247Z,0.30
2023-02-05T07:18:06.755Z,0.37
2023-02-05T07:20:35.094Z,0.63
2023-02-05T07:23:03.327Z,0.20
2023-02-05T07:25:36.568Z,0.20
2023-02-05T07:28:05.724Z,0.63
2023-02-05T07:30:34.081Z,0.20
2023-02-05T07:33:03.567Z,0.50
2023-02-05T07:35:32.465Z,1.43
2023-02-05T07:38:00.841Z,0.63
2023-02-05T07:40:29.123Z,0.20
2023-02-05T07:42:58.736Z,0.40
2023-02-05T07:45:26.972Z,0.23
2023-02-05T07:47:55.181Z,1.07
2023-02-05T07:50:23.382Z,1.40
2023-02-05T07:52:51.612Z,0.40
2023-02-05T07:55:20.105Z,0.70
2023-02-05T07:57:48.302Z,0.27
2023-02-05T08:00:18.357Z,8.60
2023-02-05T08:02:46.639Z,0.40
2023-02-05T08:05:14.887Z,2.07
2023-02-05T08:07:43.130Z,0.10
2023-02-05T08:10:14.672Z,1.23
2023-02-05T08:12:42.890Z,2.30
2023-02-05T08:15:11.450Z,0.20
2023-02-05T08:17:42.123Z,1.43
2023-02-05T08:20:11.814Z,0.20
2023-02-05T08:22:41.854Z,0.93
2023-02-05T08:25:14.063Z,0.17
2023-02-05T08:27:43.804Z,1.70
2023-02-05T08:30:14.989Z,0.20
2023-02-05T08:32:48.318Z,0.50
2023-02-05T08:35:19.316Z,12.93
2023-02-05T08:37:47.601Z,0.40
2023-02-05T08:40:15.972Z,0.93
2023-02-05T08:42:44.196Z,0.47
2023-02-05T08:45:12.414Z,0.20
2023-02-05T08:47:40.677Z,0.27
2023-02-05T08:50:11.188Z,0.40
2023-02-05T08:52:39.916Z,0.50
2023-02-05T08:55:08.422Z,1.60
2023-02-05T08:57:36.691Z,0.83
2023-02-05T09:00:05.356Z,0.20
2023-02-05T09:02:33.592Z,0.70
2023-02-05T09:05:08.965Z,1.43
2023-02-05T09:07:40.424Z,1.10
2023-02-05T09:10:10.104Z,0.33
2023-02-05T09:12:39.376Z,1.60
2023-02-05T09:15:09.075Z,4.13
2023-02-05T09:17:37.944Z,0.83
2023-02-05T09:20:06.594Z,1.13
2023-02-05T09:22:34.808Z,6.03
2023-02-05T09:25:04.483Z,0.30
2023-02-05T09:27:33.072Z,2.00
2023-02-05T09:30:03.714Z,0.80
2023-02-05T09:32:31.958Z,0.30
2023-02-05T09:35:00.175Z,0.67
2023-02-05T09:37:28.406Z,1.43
2023-02-05T09:42:51.859Z,0.80
2023-02-05T09:45:35.661Z,1.23
2023-02-05T09:48:34.053Z,0.50
2023-02-05T09:51:02.825Z,13.43
2023-02-05T09:53:37.556Z,2.67
2023-02-05T09:56:09.067Z,4.90
2023-02-05T09:58:43.842Z,3.07
2023-02-05T10:01:17.555Z,1.80
2023-02-05T10:03:48.153Z,0.83
2023-02-05T10:06:41.299Z,1.60
2023-02-05T10:09:26.928Z,0.20
2023-02-05T10:12:03.664Z,3.70
2023-02-05T10:14:46.853Z,1.10
2023-02-05T10:17:33.582Z,0.53
2023-02-05T10:20:16.311Z,16.93
2023-02-05T10:22:54.256Z,20.93
2023-02-05T10:25:45.713Z,16.97
2023-02-05T10:28:29.130Z,22.27
2023-02-05T10:31:05.508Z,18.73
2023-02-05T10:33:48.783Z,16.13
2023-02-05T10:36:21.364Z,16.97
2023-02-05T10:38:51.929Z,21.10
2023-02-05T10:41:25.650Z,21.57
2023-02-05T10:44:00.763Z,21.97
2023-02-05T10:46:35.401Z,19.43
2023-02-05T10:49:12.148Z,21.73
2023-02-05T10:51:42.898Z,23.93
2023-02-05T10:54:20.404Z,17.80
2023-02-05T10:56:49.193Z,27.30
2023-02-05T10:59:22.911Z,14.83
2023-02-05T11:01:53.013Z,20.77
2023-02-05T11:04:29.283Z,18.27
2023-02-05T11:06:58.086Z,19.37
2023-02-05T11:09:32.292Z,17.03
2023-02-05T11:12:03.281Z,13.30
2023-02-05T11:14:35.780Z,12.27
2023-02-05T11:17:21.910Z,18.00
2023-02-05T11:19:55.304Z,21.80
2023-02-05T11:22:28.359Z,20.77
2023-02-05T11:25:07.785Z,13.97
2023-02-05T11:27:36.751Z,23.40
2023-02-05T11:30:49.542Z,21.83
2023-02-05T11:33:25.888Z,18.30
2023-02-05T11:35:56.946Z,17.60
2023-02-05T11:38:31.290Z,20.10
2023-02-05T11:41:01.876Z,22.63
2023-02-05T11:43:33.134Z,16.10
2023-02-05T11:46:03.344Z,20.80
2023-02-05T11:48:41.529Z,16.93
2023-02-05T11:51:12.604Z,26.83
2023-02-05T11:53:55.114Z,22.30
2023-02-05T11:56:26.369Z,26.00
2023-02-05T11:59:01.943Z,18.30
2023-02-05T12:01:33.948Z,17.37
2023-02-05T12:04:05.113Z,22.00
2023-02-05T12:06:38.903Z,13.53
2023-02-05T12:09:07.742Z,18.27
2023-02-05T12:12:06.556Z,15.00
2023-02-05T12:14:42.364Z,17.17
2023-02-05T12:17:39.139Z,18.80
2023-02-05T12:20:19.255Z,16.10
2023-02-05T12:23:22.091Z,13.53
2023-02-05T12:25:58.815Z,14.87
2023-02-05T12:28:37.254Z,24.17
2023-02-05T12:31:20.644Z,20.30
2023-02-05T12:34:12.943Z,12.80
2023-02-05T12:36:52.679Z,18.97
2023-02-05T12:39:36.108Z,16.63
2023-02-05T12:42:12.747Z,18.27
2023-02-05T12:44:57.312Z,17.73
2023-02-05T12:47:46.414Z,17.10
2023-02-05T12:50:35.425Z,12.50
2023-02-05T12:53:19.799Z,15.00
2023-02-05T12:55:59.582Z,14.43
2023-02-05T12:58:32.729Z,17.70
2023-02-05T13:01:07.729Z,13.23
2023-02-05T13:03:43.630Z,14.33
2023-02-05T13:06:17.641Z,21.53
2023-02-05T13:08:51.609Z,14.80
2023-02-05T13:11:24.841Z,25.67
2023-02-05T13:13:57.965Z,21.60
2023-02-05T13:16:37.784Z,11.37
2023-02-05T13:19:21.263Z,15.80
2023-02-05T13:22:08.468Z,15.27
2023-02-05T13:25:01.028Z,14.77
2023-02-05T13:27:51.432Z,17.03
2023-02-05T13:30:23.993Z,12.00
2023-02-05T13:32:57.139Z,14.87
2023-02-05T13:35:27.189Z,14.17
2023-02-05T13:38:13.936Z,14.50
2023-02-05T13:41:03.178Z,9.50
2023-02-05T13:44:04.505Z,15.30
2023-02-05T13:47:06.393Z,11.03
2023-02-05T13:50:12.649Z,16.83
2023-02-05T13:53:05.747Z,16.53
2023-02-05T13:56:05.676Z,15.60
2023-02-05T13:58:40.141Z,11.57
2023-02-05T14:01:17.879Z,22.97
2023-02-05T14:03:56.788Z,18.57
2023-02-05T14:06:30.775Z,18.27
2023-02-05T14:09:03.046Z,15.10
2023-02-05T14:11:50.599Z,14.57
2023-02-05T14:14:26.343Z,20.23
2023-02-05T14:16:56.032Z,16.60
2023-02-05T14:19:46.775Z,16.03
2023-02-05T14:22:42.310Z,16.90
2023-02-05T14:26:01.666Z,18.20
2023-02-05T14:28:49.299Z,15.73
2023-02-05T14:31:59.002Z,18.43
2023-02-05T14:34:58.689Z,19.03
2023-02-05T14:37:39.331Z,19.47
2023-02-05T14:40:23.120Z,20.47
2023-02-05T14:43:08.483Z,19.23
2023-02-05T14:45:44.818Z,16.97
2023-02-05T14:48:22.542Z,20.43
2023-02-05T14:51:05.393Z,15.57
2023-02-05T14:53:35.597Z,17.07
2023-02-05T14:56:04.909Z,18.37
2023-02-05T14:58:38.481Z,18.37
2023-02-05T15:01:42.641Z,17.10
2023-02-05T15:04:24.847Z,16.37
2023-02-05T15:06:56.771Z,15.83
2023-02-05T15:09:37.374Z,23.83
2023-02-05T15:12:29.479Z,17.13
2023-02-05T15:14:58.729Z,18.40
2023-02-05T15:17:52.324Z,20.60
2023-02-05T15:20:32.464Z,19.63
2023-02-05T15:23:26.630Z,16.37
2023-02-05T15:25:59.471Z,20.80
2023-02-05T15:28:33.503Z,20.57
2023-02-05T15:31:22.318Z,22.87
2023-02-05T15:33:59.018Z,19.73
2023-02-05T15:36:33.306Z,23.27
2023-02-05T15:39:10.421Z,25.30
2023-02-05T15:41:44.618Z,21.50
2023-02-05T15:44:22.302Z,36.97
2023-02-05T15:46:50.928Z,23.27
2023-02-05T15:49:19.282Z,17.10
2023-02-05T15:51:48.925Z,21.70
2023-02-05T15:54:22.102Z,21.37
2023-02-05T15:56:52.998Z,18.00
2023-02-05T15:59:25.028Z,15.80
2023-02-05T16:02:03.065Z,19.93
2023-02-05T16:04:34.030Z,19.37
2023-02-05T16:07:02.873Z,20.40
2023-02-05T16:09:32.620Z,21.47
2023-02-05T16:12:12.697Z,16.03
2023-02-05T16:14:41.033Z,19.47
2023-02-05T16:17:14.600Z,16.17
2023-02-05T16:19:48.248Z,22.90
2023-02-05T16:22:27.296Z,16.13
2023-02-05T16:25:01.368Z,17.67
2023-02-05T16:27:36.871Z,24.23
2023-02-05T16:30:08.707Z,22.10
2023-02-05T16:32:42.346Z,19.57
2023-02-05T16:35:21.503Z,16.63
2023-02-05T16:37:50.102Z,17.83
2023-02-05T16:40:32.022Z,18.47
2023-02-05T16:43:00.464Z,20.97
2023-02-05T16:45:29.487Z,21.47
2023-02-05T16:48:22.672Z,23.43
2023-02-05T16:50:52.213Z,26.97
2023-02-05T16:53:26.156Z,20.80
2023-02-05T16:55:59.261Z,19.33
2023-02-05T16:58:38.028Z,20.23
2023-02-05T17:01:06.485Z,18.33
2023-02-05T17:03:37.296Z,21.50
2023-02-05T17:06:13.256Z,19.73
2023-02-05T17:08:42.351Z,25.67
2023-02-05T17:11:35.998Z,26.03
2023-02-05T17:14:28.221Z,23.33
2023-02-05T17:16:58.249Z,23.20
2023-02-05T17:19:28.719Z,28.83
2023-02-05T17:22:18.932Z,26.33
2023-02-05T17:24:49.359Z,17.33
2023-02-05T17:27:23.158Z,21.47
2023-02-05T17:29:51.855Z,25.93
2023-02-05T17:32:21.182Z,24.30
2023-02-05T17:34:50.096Z,21.60
2023-02-05T17:37:18.345Z,21.00
2023-02-05T17:39:46.723Z,23.43
2023-02-05T17:42:22.026Z,23.77
2023-02-05T17:44:51.129Z,19.87
2023-02-05T17:47:20.129Z,21.57
2023-02-05T17:49:48.511Z,21.60
2023-02-05T17:52:17.028Z,33.50
2023-02-05T17:54:46.512Z,26.20
2023-02-05T17:57:17.556Z,19.77
2023-02-05T17:59:47.892Z,29.83
2023-02-05T18:02:17.093Z,31.57
2023-02-05T18:04:46.031Z,15.60
2023-02-05T18:07:21.455Z,23.37
2023-02-05T18:09:49.717Z,26.07
2023-02-05T18:12:17.976Z,23.67
2023-02-05T18:14:47.560Z,20.57
2023-02-05T18:17:17.531Z,27.87
2023-02-05T18:19:45.763Z,26.60
2023-02-05T18:22:14.357Z,24.37
2023-02-05T18:24:42.711Z,25.40
2023-02-05T18:27:12.060Z,24.10
2023-02-05T18:29:42.737Z,23.87
2023-02-05T18:32:13.372Z,23.90
2023-02-05T18:34:41.804Z,22.70
2023-02-05T18:37:10.157Z,21.33
2023-02-05T18:39:39.321Z,30.87
2023-02-05T18:42:07.666Z,27.10
2023-02-05T18:44:36.149Z,30.57
2023-02-05T18:47:05.964Z,25.10
2023-02-05T18:49:36.276Z,24.00
2023-02-05T18:52:05.956Z,27.57
2023-02-05T18:54:34.424Z,22.33
2023-02-05T18:57:02.672Z,27.23
2023-02-05T18:59:30.966Z,20.47
2023-02-05T19:01:59.750Z,25.17
2023-02-05T19:04:32.898Z,24.37
2023-02-05T19:07:02.627Z,22.30
2023-02-05T19:09:31.591Z,26.57
2023-02-05T19:11:59.852Z,26.47
2023-02-05T19:14:28.389Z,26.07
2023-02-05T19:16:56.789Z,26.93
2023-02-05T19:19:27.052Z,24.27
2023-02-05T19:21:59.873Z,28.10
2023-02-05T19:24:30.358Z,29.57
2023-02-05T19:26:59.201Z,28.23
2023-02-05T19:29:27.832Z,22.67
2023-02-05T19:31:57.385Z,26.83
2023-02-05T19:34:27.775Z,28.30
2023-02-05T19:36:56.039Z,25.50
2023-02-05T19:39:24.347Z,28.70
2023-02-05T19:41:54.153Z,35.70
2023-02-05T19:44:22.409Z,21.60
2023-02-05T19:46:53.672Z,30.87
2023-02-05T19:49:23.228Z,29.70
2023-02-05T19:51:54.216Z,26.60
2023-02-05T19:54:22.704Z,23.07
2023-02-05T19:56:51.610Z,22.43
2023-02-05T19:59:21.313Z,16.83
2023-02-05T20:01:49.940Z,20.10
2023-02-05T20:04:21.265Z,28.43
2023-02-05T20:06:52.142Z,24.30
2023-02-05T20:09:20.404Z,26.80
2023-02-05T20:11:50.926Z,30.67
2023-02-05T20:14:21.226Z,24.57
2023-02-05T20:16:49.538Z,28.77
2023-02-05T20:19:18.627Z,25.73
2023-02-05T20:21:48.398Z,33.80
2023-02-05T20:24:17.391Z,27.80
2023-02-05T20:26:47.833Z,19.73
2023-02-05T20:29:33.949Z,23.27
2023-02-05T20:32:03.879Z,26.53
2023-02-05T20:34:35.334Z,20.73
2023-02-05T20:37:05.961Z,25.47
2023-02-05T20:39:38.630Z,26.70
2023-02-05T20:42:07.107Z,26.40
2023-02-05T20:44:37.100Z,19.27
2023-02-05T20:47:08.462Z,26.60
2023-02-05T20:49:37.209Z,24.43
2023-02-05T20:52:05.818Z,21.80
2023-02-05T20:54:34.629Z,19.90
2023-02-05T20:57:02.912Z,28.10
2023-02-05T20:59:32.837Z,28.47
2023-02-05T21:02:02.590Z,25.40
2023-02-05T21:04:32.551Z,27.90
2023-02-05T21:07:00.964Z,23.13
2023-02-05T21:09:29.258Z,22.83
2023-02-05T21:11:57.508Z,26.03
2023-02-05T21:14:25.797Z,26.60
2023-02-05T21:16:54.318Z,23.77
2023-02-05T21:19:23.148Z,30.10
2023-02-05T21:21:53.236Z,25.50
2023-02-05T21:24:21.839Z,22.37
2023-02-05T21:26:50.659Z,24.70
2023-02-05T21:29:20.651Z,23.80
2023-02-05T21:31:52.792Z,25.13
2023-02-05T21:34:26.669Z,28.40
2023-02-05T21:36:56.945Z,24.90
2023-02-05T21:39:25.554Z,32.07
2023-02-05T21:41:54.498Z,27.03
2023-02-05T21:44:23.099Z,20.77
2023-02-05T21:46:53.278Z,27.40
2023-02-05T21:49:21.509Z,28.73
2023-02-05T21:51:50.408Z,18.60
2023-02-05T21:54:25.191Z,26.23
2023-02-05T21:56:54.316Z,26.07
2023-02-05T21:59:22.743Z,29.37
2023-02-05T22:01:51.202Z,27.00
2023-02-05T22:04:19.501Z,23.63
2023-02-05T22:06:47.759Z,24.77
2023-02-05T22:09:17.114Z,28.53
2023-02-05T22:11:46.906Z,19.93
2023-02-05T22:14:15.161Z,26.23
2023-02-05T22:16:43.626Z,21.57
2023-02-05T22:19:12.065Z,31.93
2023-02-05T22:21:42.442Z,25.77
2023-02-05T22:24:15.318Z,22.47
2023-02-05T22:26:44.455Z,18.90
2023-02-05T22:29:15.846Z,21.27
2023-02-05T22:31:45.392Z,26.43
2023-02-05T22:34:13.804Z,25.57
2023-02-05T22:36:42.025Z,23.90
2023-02-05T22:39:10.396Z,27.10
2023-02-05T22:41:41.057Z,25.27
2023-02-05T22:44:11.280Z,28.53
2023-02-05T22:46:42.731Z,23.13
2023-02-05T22:49:13.215Z,30.70
2023-02-05T22:51:42.007Z,26.47
2023-02-05T22:54:13.041Z,17.77
2023-02-05T22:56:41.420Z,21.47
2023-02-05T22:59:09.718Z,22.50
2023-02-05T23:01:39.341Z,21.60
2023-02-05T23:04:10.223Z,21.27
2023-02-05T23:06:40.960Z,28.10
2023-02-05T23:09:11.754Z,26.93
2023-02-05T23:11:40.093Z,23.67
2023-02-05T23:14:09.092Z,21.80
2023-02-05T23:16:39.566Z,23.27
2023-02-05T23:19:12.265Z,24.23
2023-02-05T23:21:41.449Z,21.90
2023-02-05T23:24:10.545Z,30.23
2023-02-05T23:26:42.546Z,33.27
2023-02-05T23:29:12.537Z,26.97
2023-02-05T23:31:41.546Z,22.07
2023-02-05T23:34:11.525Z,25.20
2023-02-05T23:36:39.993Z,19.80
2023-02-05T23:39:08.237Z,22.63
2023-02-05T23:41:36.832Z,24.27
2023-02-05T23:44:07.139Z,20.20
2023-02-05T23:46:36.569Z,21.23
2023-02-05T23:49:05.132Z,26.30
2023-02-05T23:51:35.261Z,23.13
2023-02-05T23:54:03.564Z,19.50
2023-02-05T23:56:31.864Z,38.33
2023-02-05T23:59:00.388Z,26.47
